Time;durP1;ratioP1;P1;durP2;ratioP2;P2;SDS_P1;SDS_P2;PMS_P1;PMS_P2;Temp;Humidity;BMP_temperature;BMP_pressure;BME280_temperature;BME280_humidity;BME280_pressure;Samples;Min_cycle;Max_cycle;Signal;HPM_P1;HPM_P2
2021/07/08 00:00:08;;;;;;;3.25;1.08;;;32.40;28.10;;;;;;5040547;28;20035;-52
2021/07/08 00:02:34;;;;;;;5.30;1.30;;;32.40;28.20;;;;;;5050699;28;20029;-52
2021/07/08 00:05:00;;;;;;;3.08;1.15;;;32.40;28.20;;;;;;5051050;28;20490;-52
2021/07/08 00:07:26;;;;;;;4.03;1.40;;;32.40;28.20;;;;;;5032439;28;20035;-53
2021/07/08 00:09:52;;;;;;;5.68;1.10;;;32.40;28.30;;;;;;5032933;28;20029;-52
2021/07/08 00:12:18;;;;;;;5.70;1.10;;;32.40;28.30;;;;;;5051299;28;20468;-52
2021/07/08 00:14:44;;;;;;;4.97;1.80;;;32.40;28.40;;;;;;5050857;28;20036;-51
2021/07/08 00:17:10;;;;;;;5.53;1.63;;;32.40;28.40;;;;;;5050954;28;20368;-51
2021/07/08 00:19:36;;;;;;;5.32;1.20;;;32.30;28.30;;;;;;5050270;28;20499;-51
2021/07/08 00:22:03;;;;;;;2.97;1.45;;;32.30;28.40;;;;;;5050663;28;20025;-51
2021/07/08 00:24:29;;;;;;;1.60;1.00;;;32.30;28.40;;;;;;5050542;28;20029;-51
2021/07/08 00:26:55;;;;;;;4.72;1.58;;;32.30;28.40;;;;;;5033435;28;20044;-60
2021/07/08 00:29:21;;;;;;;6.75;1.60;;;32.40;28.40;;;;;;5051001;28;20029;-52
2021/07/08 00:31:47;;;;;;;3.10;1.00;;;32.30;28.40;;;;;;5032641;28;20041;-51
2021/07/08 00:34:13;;;;;;;4.93;1.13;;;32.30;28.40;;;;;;5050388;28;20021;-51
2021/07/08 00:36:39;;;;;;;5.47;1.33;;;32.30;28.40;;;;;;5050186;28;20087;-52
2021/07/08 00:39:05;;;;;;;3.70;1.75;;;32.30;28.30;;;;;;5050974;28;20112;-52
2021/07/08 00:41:31;;;;;;;2.03;0.98;;;32.20;28.40;;;;;;5054385;28;20051;-51
2021/07/08 00:43:57;;;;;;;3.33;1.10;;;32.20;28.30;;;;;;5054418;28;20043;-54
2021/07/08 00:46:23;;;;;;;4.05;1.08;;;32.20;28.30;;;;;;5054451;28;20025;-52
2021/07/08 00:48:49;;;;;;;1.95;1.10;;;32.20;28.30;;;;;;5036576;28;20033;-52
2021/07/08 00:51:15;;;;;;;3.53;1.00;;;32.20;28.30;;;;;;5054583;28;20029;-51
2021/07/08 00:53:41;;;;;;;3.90;1.17;;;32.20;28.40;;;;;;5054432;28;20036;-53
2021/07/08 00:56:09;;;;;;;5.05;1.17;;;32.20;28.40;;;;;;5053142;28;20495;-52
2021/07/08 00:58:35;;;;;;;2.85;1.10;;;32.20;28.40;;;;;;5036371;28;20468;-51
2021/07/08 01:01:02;;;;;;;3.85;1.38;;;32.20;28.30;;;;;;5054436;28;20040;-51
2021/07/08 01:03:29;;;;;;;4.00;1.80;;;32.20;28.40;;;;;;5053522;28;20388;-53
2021/07/08 01:05:56;;;;;;;2.67;1.20;;;32.20;28.40;;;;;;5054211;28;20092;-51
2021/07/08 01:08:22;;;;;;;3.67;1.40;;;32.20;28.40;;;;;;5053974;28;20028;-51
2021/07/08 01:10:49;;;;;;;3.67;1.20;;;32.20;28.40;;;;;;5053541;28;20078;-51
2021/07/08 01:13:17;;;;;;;3.53;1.20;;;32.20;28.40;;;;;;5053828;28;20029;-51
2021/07/08 01:15:43;;;;;;;2.38;1.25;;;32.20;28.50;;;;;;5053195;28;20040;-52
2021/07/08 01:18:10;;;;;;;3.97;1.27;;;32.10;28.40;;;;;;5044742;28;20025;-53
2021/07/08 01:20:36;;;;;;;1.50;0.95;;;32.20;28.50;;;;;;5054157;28;20053;-51
2021/07/08 01:23:03;;;;;;;3.45;1.08;;;32.10;28.40;;;;;;5053564;28;20040;-52
2021/07/08 01:25:35;;;;;;;2.13;1.20;;;32.10;28.40;;;;;;5036036;28;20036;-58
2021/07/08 01:28:04;;;;;;;3.50;1.15;;;32.10;28.40;;;;;;5053415;28;20158;-51
2021/07/08 01:30:30;;;;;;;3.30;1.17;;;32.10;28.40;;;;;;5053131;28;20119;-54
2021/07/08 01:32:58;;;;;;;3.72;1.17;;;32.10;28.40;;;;;;5019238;28;20037;-52
2021/07/08 01:35:24;;;;;;;2.35;1.15;;;32.10;28.50;;;;;;5053667;28;20388;-52
2021/07/08 01:37:50;;;;;;;2.03;1.10;;;32.10;28.50;;;;;;5052668;28;20057;-52
2021/07/08 01:40:18;;;;;;;2.50;1.00;;;32.10;28.50;;;;;;5052992;28;20036;-52
2021/07/08 01:42:45;;;;;;;4.10;1.20;;;32.10;28.50;;;;;;5053397;28;20061;-51
2021/07/08 01:45:13;;;;;;;2.72;1.13;;;32.00;28.50;;;;;;5053219;28;20032;-51
2021/07/08 01:47:40;;;;;;;3.17;1.30;;;32.00;28.50;;;;;;5053109;28;20036;-53
2021/07/08 01:50:07;;;;;;;2.47;1.02;;;32.00;28.50;;;;;;5053146;28;20026;-51
2021/07/08 01:52:33;;;;;;;1.50;1.30;;;32.00;28.50;;;;;;5052279;28;20021;-52
2021/07/08 01:54:59;;;;;;;5.53;1.55;;;32.00;28.40;;;;;;5053206;28;20033;-51
2021/07/08 01:57:25;;;;;;;4.72;1.17;;;32.00;28.50;;;;;;5052858;28;20029;-51
2021/07/08 01:59:51;;;;;;;2.85;1.33;;;32.00;28.40;;;;;;5052158;28;20051;-52
2021/07/08 02:02:17;;;;;;;5.35;2.25;;;32.00;28.40;;;;;;5052836;28;20433;-51
2021/07/08 02:04:44;;;;;;;6.18;1.50;;;32.00;28.40;;;;;;5052898;28;20037;-51
2021/07/08 02:07:10;;;;;;;5.30;1.00;;;31.90;28.30;;;;;;5052895;28;20053;-52
2021/07/08 02:09:36;;;;;;;6.80;1.30;;;32.00;28.40;;;;;;5034994;28;20068;-51
2021/07/08 02:12:02;;;;;;;2.13;1.13;;;31.90;28.40;;;;;;5052955;28;20079;-59
2021/07/08 02:14:29;;;;;;;4.20;1.65;;;31.90;28.30;;;;;;5052756;28;20025;-48
2021/07/08 02:16:56;;;;;;;3.30;1.15;;;31.90;28.30;;;;;;5051387;28;20060;-50
2021/07/08 02:19:22;;;;;;;2.83;1.10;;;31.90;28.30;;;;;;5052359;28;20884;-49
2021/07/08 02:21:49;;;;;;;1.98;1.33;;;31.90;28.40;;;;;;5052388;28;20468;-49
2021/07/08 02:24:15;;;;;;;5.78;1.10;;;31.90;28.30;;;;;;5052723;28;20078;-50
2021/07/08 02:26:41;;;;;;;3.42;0.70;;;31.80;28.30;;;;;;5052015;28;20502;-51
2021/07/08 02:29:09;;;;;;;4.38;1.27;;;31.80;28.30;;;;;;5052473;28;20143;-50
2021/07/08 02:31:36;;;;;;;2.92;1.20;;;31.80;28.30;;;;;;5052371;28;20538;-50
2021/07/08 02:34:03;;;;;;;3.67;1.20;;;31.80;28.50;;;;;;5052370;28;20021;-50
2021/07/08 02:36:29;;;;;;;1.60;1.00;;;31.80;28.40;;;;;;5051700;28;20543;-50
2021/07/08 02:38:54;;;;;;;3.10;1.10;;;31.80;28.40;;;;;;5052152;28;20112;-50
2021/07/08 02:41:21;;;;;;;1.80;0.90;;;31.70;28.40;;;;;;5033940;28;20484;-51
2021/07/08 02:43:47;;;;;;;4.70;1.17;;;31.70;28.40;;;;;;5052061;28;20263;-52
2021/07/08 02:46:13;;;;;;;2.63;1.25;;;31.70;28.40;;;;;;5052325;28;20028;-52
2021/07/08 02:48:39;;;;;;;2.80;1.00;;;31.70;28.40;;;;;;5051827;28;20041;-51
2021/07/08 02:51:05;;;;;;;2.70;1.25;;;31.70;28.40;;;;;;5052064;28;20036;-52
2021/07/08 02:53:31;;;;;;;3.58;1.00;;;31.70;28.40;;;;;;5052154;28;20021;-52
2021/07/08 02:55:57;;;;;;;3.13;0.80;;;31.70;28.40;;;;;;5051223;28;20052;-54
2021/07/08 02:58:23;;;;;;;2.53;0.93;;;31.60;28.30;;;;;;5051749;28;20020;-50
2021/07/08 03:00:50;;;;;;;6.72;1.10;;;31.60;28.30;;;;;;5051677;28;20108;-51
2021/07/08 03:03:17;;;;;;;6.43;1.85;;;31.60;28.40;;;;;;5051185;28;20040;-50
2021/07/08 03:05:43;;;;;;;2.78;1.23;;;31.60;28.30;;;;;;5033362;28;20021;-51
2021/07/08 03:08:10;;;;;;;6.03;1.23;;;31.60;28.40;;;;;;5014132;28;20044;-51
2021/07/08 03:10:36;;;;;;;1.98;1.20;;;31.60;28.30;;;;;;5031778;28;20052;-52
2021/07/08 03:13:03;;;;;;;4.32;1.52;;;31.50;28.30;;;;;;5040822;28;20372;-51
2021/07/08 03:15:29;;;;;;;4.18;1.50;;;31.50;28.40;;;;;;5051234;28;20086;-51
2021/07/08 03:17:57;;;;;;;3.50;1.10;;;31.50;28.30;;;;;;5051513;28;20283;-51
2021/07/08 03:20:26;;;;;;;4.13;1.60;;;31.50;28.40;;;;;;5051555;28;20433;-50
2021/07/08 03:22:53;;;;;;;5.20;1.50;;;31.50;28.40;;;;;;5050594;28;20472;-51
2021/07/08 03:25:20;;;;;;;1.65;1.10;;;31.50;28.50;;;;;;5050693;28;20114;-51
2021/07/08 03:27:47;;;;;;;2.03;1.20;;;31.50;28.50;;;;;;5043708;28;20044;-50
2021/07/08 03:30:16;;;;;;;3.33;1.10;;;31.50;28.40;;;;;;5031131;28;20649;-50
2021/07/08 03:32:42;;;;;;;3.10;1.40;;;31.50;28.50;;;;;;5031177;28;20034;-51
2021/07/08 03:35:09;;;;;;;2.00;1.10;;;31.50;28.50;;;;;;5031421;28;20117;-51
2021/07/08 03:37:35;;;;;;;4.28;1.90;;;31.50;28.40;;;;;;5036331;28;20483;-50
2021/07/08 03:40:04;;;;;;;6.18;1.45;;;31.40;28.40;;;;;;5036604;28;20025;-50
2021/07/08 03:42:30;;;;;;;1.15;0.90;;;31.40;28.50;;;;;;5013120;28;20058;-50
2021/07/08 03:44:56;;;;;;;2.97;1.35;;;31.40;28.40;;;;;;5030781;28;20033;-52
2021/07/08 03:47:22;;;;;;;1.35;1.10;;;31.40;28.40;;;;;;5030982;28;20025;-50
2021/07/08 03:49:48;;;;;;;6.93;0.95;;;31.40;28.60;;;;;;5030876;28;20026;-50
2021/07/08 03:52:14;;;;;;;4.18;1.30;;;31.40;28.60;;;;;;5031162;28;20034;-50
2021/07/08 03:54:40;;;;;;;3.03;1.38;;;31.40;28.50;;;;;;5030524;28;20039;-50
2021/07/08 03:57:06;;;;;;;1.13;1.00;;;31.30;28.60;;;;;;5033213;28;20064;-50
2021/07/08 03:59:32;;;;;;;3.78;1.23;;;31.30;28.50;;;;;;5050825;28;20027;-51
2021/07/08 04:01:58;;;;;;;2.60;1.00;;;31.30;28.50;;;;;;5050855;28;20029;-52
2021/07/08 04:04:24;;;;;;;2.55;1.13;;;31.30;28.70;;;;;;5050893;28;20100;-52
2021/07/08 04:06:50;;;;;;;2.67;1.20;;;31.20;28.70;;;;;;5050884;28;20116;-51
2021/07/08 04:09:16;;;;;;;1.23;1.08;;;31.20;28.70;;;;;;5050585;28;20029;-50
2021/07/08 04:11:42;;;;;;;4.63;1.20;;;31.20;28.70;;;;;;5032735;28;20456;-50
2021/07/08 04:14:08;;;;;;;1.83;1.20;;;31.20;28.80;;;;;;5048181;28;20068;-50
2021/07/08 04:16:34;;;;;;;2.88;1.30;;;31.20;28.80;;;;;;5054704;28;20136;-52
2021/07/08 04:19:01;;;;;;;2.05;1.25;;;31.20;28.90;;;;;;5054903;28;20025;-50
2021/07/08 04:21:27;;;;;;;2.38;1.00;;;31.20;29.00;;;;;;5054967;28;20025;-50
2021/07/08 04:23:53;;;;;;;1.83;1.30;;;31.20;28.90;;;;;;5053795;28;20365;-50
2021/07/08 04:26:19;;;;;;;4.72;1.55;;;31.20;29.00;;;;;;5054930;28;20037;-50
2021/07/08 04:28:45;;;;;;;2.42;1.42;;;31.20;29.00;;;;;;5054729;28;20021;-51
2021/07/08 04:31:15;;;;;;;4.95;1.38;;;31.10;29.10;;;;;;5054073;28;20120;-52
2021/07/08 04:33:41;;;;;;;;;;;31.10;29.10;;;;;;5054917;28;20041;-52
2021/07/08 04:36:11;;;;;;;3.15;1.50;;;31.10;29.00;;;;;;5054435;28;19920;-51
2021/07/08 04:38:37;;;;;;;2.15;1.58;;;31.10;29.10;;;;;;5054803;28;20029;-51
2021/07/08 04:41:03;;;;;;;5.03;1.88;;;31.10;29.20;;;;;;5054024;28;20053;-50
2021/07/08 04:43:29;;;;;;;4.75;1.75;;;31.10;29.70;;;;;;5054241;28;20025;-51
2021/07/08 04:45:55;;;;;;;3.60;1.70;;;31.10;30.30;;;;;;5054029;28;20033;-50
2021/07/08 04:48:21;;;;;;;5.88;2.38;;;31.00;30.40;;;;;;5052932;28;20500;-51
2021/07/08 04:50:47;;;;;;;4.82;1.88;;;31.00;31.50;;;;;;5034118;28;20100;-52
2021/07/08 04:53:17;;;;;;;4.97;2.58;;;31.00;31.80;;;;;;5034087;28;20154;-51
2021/07/08 04:55:43;;;;;;;10.87;4.57;;;30.90;32.20;;;;;;5033997;28;20443;-51
2021/07/08 04:58:09;;;;;;;7.15;5.00;;;30.90;32.70;;;;;;5016667;28;20599;-51
2021/07/08 05:00:35;;;;;;;11.18;8.00;;;30.90;32.90;;;;;;5033171;28;20140;-55
2021/07/08 05:03:06;;;;;;;15.90;10.80;;;30.90;34.00;;;;;;5042633;28;20574;-53
2021/07/08 05:05:33;;;;;;;12.48;8.48;;;30.90;34.50;;;;;;5048034;28;20531;-51
2021/07/08 05:07:58;;;;;;;9.43;6.50;;;30.80;35.00;;;;;;5052406;28;20032;-51
2021/07/08 05:10:24;;;;;;;10.50;7.18;;;30.80;35.80;;;;;;5051818;28;20040;-52
2021/07/08 05:12:51;;;;;;;12.60;6.88;;;30.80;36.10;;;;;;5051486;28;20025;-58
2021/07/08 05:15:17;;;;;;;24.17;7.72;;;30.80;37.10;;;;;;5022383;28;20041;-54
2021/07/08 05:17:48;;;;;;;10.85;6.75;;;30.80;38.00;;;;;;5049197;28;20740;-53
2021/07/08 05:20:16;;;;;;;12.65;5.63;;;30.80;38.50;;;;;;5048627;28;20036;-51
2021/07/08 05:22:45;;;;;;;10.57;5.18;;;30.80;39.20;;;;;;5051970;28;20025;-51
2021/07/08 05:25:15;;;;;;;8.88;4.63;;;30.70;39.10;;;;;;5018114;28;20487;-58
2021/07/08 05:27:41;;;;;;;10.07;5.75;;;30.70;39.50;;;;;;5051913;28;20162;-56
2021/07/08 05:30:09;;;;;;;13.30;5.50;;;30.70;39.10;;;;;;5051969;28;21031;-51
2021/07/08 05:32:35;;;;;;;9.85;5.57;;;30.60;40.20;;;;;;5051873;28;20025;-52
2021/07/08 05:35:03;;;;;;;11.30;6.13;;;30.60;39.80;;;;;;5051224;28;20496;-51
2021/07/08 05:37:30;;;;;;;10.02;6.00;;;30.60;39.60;;;;;;5034052;28;20037;-50
2021/07/08 05:39:56;;;;;;;9.32;5.50;;;30.60;39.90;;;;;;5051375;28;20037;-51
2021/07/08 05:42:22;;;;;;;11.73;6.18;;;30.50;39.60;;;;;;5029600;28;20041;-53
2021/07/08 05:44:49;;;;;;;9.02;4.70;;;30.60;39.90;;;;;;5044369;28;20464;-51
2021/07/08 05:47:16;;;;;;;9.05;4.45;;;30.60;40.00;;;;;;5049411;28;20032;-52
2021/07/08 05:49:42;;;;;;;10.75;3.90;;;30.60;40.10;;;;;;5032256;28;20425;-52
2021/07/08 05:52:08;;;;;;;10.82;3.10;;;30.60;40.80;;;;;;5050013;28;20053;-51
2021/07/08 05:54:34;;;;;;;6.97;2.97;;;30.60;41.30;;;;;;5049520;28;20079;-52
2021/07/08 05:57:00;;;;;;;8.48;3.25;;;30.50;41.90;;;;;;5049727;28;20758;-51
2021/07/08 05:59:28;;;;;;;11.85;3.50;;;30.50;41.80;;;;;;5051023;28;20029;-52
2021/07/08 06:01:55;;;;;;;7.93;3.40;;;30.50;42.00;;;;;;5033096;28;20013;-52
2021/07/08 06:04:21;;;;;;;10.30;2.92;;;30.40;41.80;;;;;;5031643;28;20106;-53
2021/07/08 06:06:47;;;;;;;10.23;3.30;;;30.40;41.60;;;;;;5045365;28;20037;-51
2021/07/08 06:09:13;;;;;;;9.20;3.78;;;30.40;41.90;;;;;;5049752;28;20064;-51
2021/07/08 06:11:40;;;;;;;8.38;3.58;;;30.30;42.20;;;;;;5050187;28;20032;-51
2021/07/08 06:14:06;;;;;;;11.23;3.67;;;30.30;42.60;;;;;;5051073;28;20102;-55
2021/07/08 06:16:32;;;;;;;11.57;3.63;;;30.30;42.80;;;;;;5046064;28;20069;-54
2021/07/08 06:18:57;;;;;;;8.50;3.45;;;30.30;43.10;;;;;;5051265;28;20152;-51
2021/07/08 06:21:24;;;;;;;6.25;3.00;;;30.20;42.90;;;;;;5050465;28;20371;-51
2021/07/08 06:23:51;;;;;;;9.93;3.55;;;30.20;42.80;;;;;;5032551;28;20489;-51
2021/07/08 06:26:18;;;;;;;11.63;4.15;;;30.20;44.10;;;;;;5050280;28;20023;-51
2021/07/08 06:28:44;;;;;;;11.40;4.03;;;30.10;43.40;;;;;;5050079;28;20056;-52
2021/07/08 06:31:10;;;;;;;12.18;3.72;;;30.10;43.50;;;;;;5050592;28;20033;-51
2021/07/08 06:33:37;;;;;;;13.40;3.85;;;30.00;43.70;;;;;;5050734;28;20095;-49
2021/07/08 06:36:03;;;;;;;13.32;3.97;;;30.00;44.00;;;;;;5032004;28;20496;-51
2021/07/08 06:38:29;;;;;;;10.00;3.28;;;29.90;43.90;;;;;;5049321;28;20036;-51
2021/07/08 06:40:55;;;;;;;12.93;3.47;;;29.90;44.30;;;;;;5050024;28;20044;-51
2021/07/08 06:43:21;;;;;;;9.50;3.08;;;29.80;44.30;;;;;;5030886;28;20468;-53
2021/07/08 06:45:47;;;;;;;10.10;3.03;;;29.80;44.30;;;;;;5049724;28;20090;-51
2021/07/08 06:48:15;;;;;;;11.55;3.42;;;29.80;44.20;;;;;;5050336;28;20333;-52
2021/07/08 06:50:42;;;;;;;11.32;3.40;;;29.70;44.40;;;;;;5050224;28;20043;-59
2021/07/08 06:53:08;;;;;;;11.95;3.83;;;29.70;44.50;;;;;;5032320;28;20032;-50
2021/07/08 06:55:35;;;;;;;8.52;3.58;;;29.60;44.50;;;;;;5032140;28;20068;-51
2021/07/08 06:58:01;;;;;;;9.27;3.33;;;29.60;44.60;;;;;;5049297;28;20029;-51
2021/07/08 07:00:30;;;;;;;11.82;3.53;;;29.60;44.50;;;;;;5049951;28;20025;-50
2021/07/08 07:02:58;;;;;;;13.00;3.92;;;29.60;44.60;;;;;;5049479;28;20116;-50
2021/07/08 07:05:26;;;;;;;17.92;5.88;;;29.60;44.50;;;;;;5049692;28;20028;-51
2021/07/08 07:07:53;;;;;;;10.50;4.07;;;29.60;45.00;;;;;;5031674;28;20523;-52
2021/07/08 07:10:21;;;;;;;12.75;4.35;;;29.60;45.10;;;;;;5049811;28;20437;-50
2021/07/08 07:12:49;;;;;;;13.13;3.97;;;29.60;45.70;;;;;;5049205;28;20036;-55
2021/07/08 07:15:20;;;;;;;10.23;3.95;;;29.60;47.00;;;;;;5031702;28;20087;-55
2021/07/08 07:17:47;;;;;;;10.65;4.28;;;29.60;47.60;;;;;;5048039;28;20063;-55
2021/07/08 07:20:15;;;;;;;17.42;4.13;;;29.50;47.60;;;;;;5049752;28;20029;-55
2021/07/08 07:22:46;;;;;;;12.98;4.80;;;29.50;48.00;;;;;;5054488;28;20098;-59
2021/07/08 07:25:16;;;;;;;15.43;5.07;;;29.40;48.80;;;;;;5049736;28;20425;-57
2021/07/08 07:27:42;;;;;;;15.75;5.22;;;29.40;49.50;;;;;;5029491;28;20021;-55
2021/07/08 07:30:09;;;;;;;14.32;5.13;;;29.40;50.40;;;;;;5030015;28;20033;-56
2021/07/08 07:32:35;;;;;;;12.48;4.38;;;29.20;50.80;;;;;;5044824;28;20035;-55
2021/07/08 07:35:03;;;;;;;16.00;5.43;;;29.10;50.20;;;;;;5031116;28;20045;-55
2021/07/08 07:37:29;;;;;;;19.75;5.85;;;29.00;50.10;;;;;;5048876;28;20033;-57
2021/07/08 07:39:55;;;;;;;14.38;4.43;;;29.00;50.50;;;;;;5047978;28;20052;-53
2021/07/08 07:42:22;;;;;;;14.43;5.50;;;28.80;50.00;;;;;;5048936;28;20424;-51
2021/07/08 07:44:48;;;;;;;14.77;4.80;;;28.70;50.20;;;;;;5048339;28;20452;-53
2021/07/08 07:47:15;;;;;;;10.02;4.57;;;28.30;51.40;;;;;;5026136;28;20029;-54
2021/07/08 07:49:42;;;;;;;11.85;4.10;;;28.10;52.80;;;;;;5047349;28;20494;-56
2021/07/08 07:52:11;;;;;;;7.18;3.50;;;27.90;53.80;;;;;;5048799;28;20037;-53
2021/07/08 07:54:38;;;;;;;9.40;3.80;;;27.60;55.50;;;;;;5045842;28;20031;-52
2021/07/08 07:57:05;;;;;;;6.30;3.70;;;27.10;57.30;;;;;;5048087;28;20111;-51
2021/07/08 07:59:32;;;;;;;10.15;4.18;;;26.80;56.80;;;;;;5011906;28;20028;-54
2021/07/08 08:02:00;;;;;;;10.43;4.32;;;26.70;57.60;;;;;;5042493;28;20066;-54
2021/07/08 08:04:29;;;;;;;5.75;2.95;;;26.80;58.10;;;;;;5043007;28;20029;-54
2021/07/08 08:09:40;;;;;;;6.03;2.53;;;26.50;61.10;;;;;;5042275;28;20021;-53
2021/07/08 08:12:07;;;;;;;6.15;2.88;;;26.30;61.40;;;;;;5025842;28;20049;-55
2021/07/08 08:14:33;;;;;;;3.03;2.70;;;26.00;61.70;;;;;;5048124;28;20021;-53
2021/07/08 08:17:00;;;;;;;4.53;3.00;;;25.90;62.90;;;;;;5030131;28;20476;-53
2021/07/08 08:19:26;;;;;;;3.65;2.60;;;25.70;64.10;;;;;;5047174;28;20018;-53
2021/07/08 08:21:52;;;;;;;5.40;3.80;;;25.70;64.30;;;;;;5048423;28;20032;-54
2021/07/08 08:24:18;;;;;;;67.68;6.40;;;25.60;65.30;;;;;;5047878;28;20423;-55
2021/07/08 08:26:50;;;;;;;5.30;4.80;;;25.40;65.50;;;;;;5048048;28;20357;-54
2021/07/08 08:29:16;;;;;;;4.53;4.05;;;25.10;66.50;;;;;;5048302;28;20055;-54
2021/07/08 08:31:42;;;;;;;6.05;3.80;;;24.80;67.10;;;;;;5047785;28;20029;-55
2021/07/08 08:34:08;;;;;;;5.38;4.28;;;24.80;67.50;;;;;;5049313;28;20052;-54
2021/07/08 08:36:34;;;;;;;5.60;4.40;;;24.50;68.20;;;;;;5048113;28;20424;-55
2021/07/08 08:39:00;;;;;;;8.98;4.80;;;24.50;68.50;;;;;;5047070;28;20025;-53
2021/07/08 08:41:26;;;;;;;8.25;4.88;;;24.20;69.20;;;;;;5048094;28;20057;-56
2021/07/08 08:43:52;;;;;;;6.90;5.15;;;24.00;69.60;;;;;;5029628;28;20038;-53
2021/07/08 08:46:18;;;;;;;7.50;5.70;;;24.10;69.80;;;;;;5069065;28;20123;-54
2021/07/08 08:48:44;;;;;;;8.88;5.88;;;24.10;69.40;;;;;;5068731;28;20024;-53
2021/07/08 08:51:11;;;;;;;7.82;5.95;;;24.10;69.30;;;;;;5050063;28;20032;-53
2021/07/08 08:53:37;;;;;;;4.53;3.95;;;24.30;69.10;;;;;;5031066;28;20036;-53
2021/07/08 08:56:03;;;;;;;8.68;5.80;;;24.50;68.30;;;;;;5049265;28;20033;-53
2021/07/08 08:58:29;;;;;;;32.88;4.45;;;24.50;67.80;;;;;;5049177;28;20055;-53
2021/07/08 09:00:57;;;;;;;6.22;4.63;;;24.80;67.40;;;;;;5051237;28;20052;-53
2021/07/08 09:03:28;;;;;;;17.15;4.25;;;24.80;67.10;;;;;;5053261;28;20017;-53
2021/07/08 09:05:58;;;;;;;6.18;4.80;;;24.80;66.60;;;;;;5053743;28;20036;-53
2021/07/08 09:08:25;;;;;;;7.43;5.90;;;24.70;67.30;;;;;;5053348;28;20098;-53
2021/07/08 09:11:04;;;;;;;5.95;4.38;;;24.70;67.20;;;;;;5052801;28;20349;-54
2021/07/08 09:13:42;;;;;;;4.75;4.28;;;24.80;66.70;;;;;;5053436;28;20036;-53
2021/07/08 09:16:16;;;;;;;5.68;4.85;;;24.80;66.80;;;;;;5053067;28;20076;-53
2021/07/08 09:18:43;;;;;;;10.00;4.68;;;24.80;66.80;;;;;;5052415;28;20070;-53
2021/07/08 09:21:21;;;;;;;7.68;4.53;;;24.80;66.80;;;;;;5053503;28;20058;-53
2021/07/08 09:24:15;;;;;;;7.57;4.38;;;24.80;66.50;;;;;;5053037;28;20037;-52
2021/07/08 09:26:54;;;;;;;4.47;4.07;;;24.80;66.80;;;;;;5053377;28;20495;-53
2021/07/08 09:29:22;;;;;;;4.85;4.32;;;24.90;65.80;;;;;;5035295;28;20028;-53
2021/07/08 09:31:55;;;;;;;4.63;4.00;;;25.00;65.80;;;;;;5052631;28;20017;-53
2021/07/08 09:34:25;;;;;;;4.53;4.13;;;25.00;65.40;;;;;;5052889;28;20075;-53
2021/07/08 09:37:17;;;;;;;5.00;4.50;;;25.00;65.80;;;;;;5052712;28;20044;-53
2021/07/08 09:39:45;;;;;;;6.15;4.20;;;25.00;65.70;;;;;;5032991;28;20113;-52
2021/07/08 09:42:14;;;;;;;5.78;3.53;;;25.00;65.80;;;;;;5015102;28;20049;-53
2021/07/08 09:44:40;;;;;;;2.88;2.67;;;25.10;65.30;;;;;;5033078;28;20028;-52
2021/07/08 09:47:23;;;;;;;3.40;3.08;;;25.20;64.60;;;;;;5032724;28;20021;-53
2021/07/08 09:49:49;;;;;;;5.32;2.88;;;25.40;63.90;;;;;;4998440;28;20026;-53
2021/07/08 09:52:15;;;;;;;3.10;2.80;;;25.60;63.70;;;;;;5015337;28;20040;-58
2021/07/08 09:57:30;;;;;;;6.22;3.55;;;26.00;63.10;;;;;;5033823;28;20038;-54
2021/07/08 09:59:57;;;;;;;5.07;2.72;;;26.20;62.70;;;;;;5052379;28;20029;-53
2021/07/08 10:02:37;;;;;;;6.32;3.10;;;26.40;62.10;;;;;;5052564;28;20060;-53
2021/07/08 10:05:03;;;;;;;7.07;4.47;;;26.40;61.90;;;;;;5052597;28;20324;-53
2021/07/08 10:07:30;;;;;;;8.80;3.78;;;26.70;62.10;;;;;;5052474;28;20145;-55
2021/07/08 10:09:56;;;;;;;9.00;4.07;;;26.90;60.80;;;;;;5052032;28;20099;-54
2021/07/08 10:12:24;;;;;;;11.50;4.43;;;27.00;60.20;;;;;;5051015;28;20453;-54
2021/07/08 10:14:51;;;;;;;7.38;3.30;;;27.00;59.80;;;;;;5051712;28;20104;-53
2021/07/08 10:17:19;;;;;;;8.77;4.15;;;27.00;59.90;;;;;;5051918;28;20029;-55
2021/07/08 10:19:47;;;;;;;11.32;5.50;;;27.10;60.20;;;;;;5033050;28;20029;-54
2021/07/08 10:22:13;;;;;;;8.63;5.43;;;27.30;59.10;;;;;;5032333;28;20481;-54
2021/07/08 10:24:40;;;;;;;13.25;5.30;;;27.40;58.70;;;;;;5032091;28;20037;-53
2021/07/08 10:27:09;;;;;;;10.45;5.05;;;27.50;58.70;;;;;;5014082;28;20053;-54
2021/07/08 10:29:38;;;;;;;10.65;5.85;;;27.70;58.10;;;;;;5031482;28;20501;-53
2021/07/08 10:32:06;;;;;;;10.88;5.53;;;27.80;58.00;;;;;;5031710;28;20029;-54
2021/07/08 10:34:46;;;;;;;16.70;7.57;;;28.00;58.10;;;;;;5031768;28;20487;-53
2021/07/08 10:37:32;;;;;;;16.80;7.30;;;28.10;57.70;;;;;;5034043;28;20777;-54
2021/07/08 10:40:00;;;;;;;17.05;7.82;;;28.20;58.10;;;;;;5051475;28;20483;-53
2021/07/08 10:42:53;;;;;;;18.48;8.30;;;28.30;58.50;;;;;;5051327;28;20041;-53
2021/07/08 10:45:23;;;;;;;17.48;8.13;;;28.30;59.10;;;;;;5064622;28;20455;-53
2021/07/08 10:47:53;;;;;;;19.98;7.97;;;28.30;59.10;;;;;;5071298;28;20025;-57
2021/07/08 10:50:34;;;;;;;;;;;28.20;59.30;;;;;;5059985;28;20060;-55
2021/07/08 10:53:31;;;;;;;20.73;8.23;;;28.40;59.70;;;;;;5051206;28;19953;-54
2021/07/08 10:56:05;;;;;;;13.32;6.85;;;28.60;59.90;;;;;;4969913;28;20129;-53
2021/07/08 10:58:52;;;;;;;18.60;8.15;;;28.60;59.40;;;;;;4969155;28;20047;-54
2021/07/08 11:01:25;;;;;;;22.65;8.38;;;28.80;59.40;;;;;;4949357;29;20451;-60
2021/07/08 11:03:52;;;;;;;19.90;8.55;;;28.90;59.00;;;;;;4948732;29;20435;-55
2021/07/08 11:06:23;;;;;;;22.27;8.25;;;28.80;59.20;;;;;;4949010;29;20122;-57
2021/07/08 11:08:51;;;;;;;22.90;8.77;;;28.80;59.50;;;;;;4949951;28;20040;-55
2021/07/08 11:11:23;;;;;;;18.00;8.43;;;29.10;59.10;;;;;;4987873;28;20030;-55
2021/07/08 11:13:51;;;;;;;19.50;8.68;;;28.90;59.20;;;;;;4987306;28;20042;-54
2021/07/08 11:16:58;;;;;;;20.55;9.07;;;28.80;59.70;;;;;;4987651;28;20081;-54
2021/07/08 11:19:24;;;;;;;22.13;10.25;;;28.70;59.90;;;;;;4954539;28;20042;-54
2021/07/08 11:21:59;;;;;;;21.52;10.75;;;28.80;60.00;;;;;;4967861;28;20030;-55
2021/07/08 11:24:41;;;;;;;15.98;9.52;;;28.90;60.50;;;;;;4967900;28;20165;-54
2021/07/08 11:27:09;;;;;;;16.17;10.50;;;28.80;60.40;;;;;;4986555;28;20557;-53
2021/07/08 11:29:41;;;;;;;19.67;11.45;;;28.70;60.60;;;;;;4987131;28;20110;-55
2021/07/08 11:32:47;;;;;;;21.45;11.07;;;28.90;60.80;;;;;;5004691;28;20561;-56
2021/07/08 11:35:20;;;;;;;21.15;11.98;;;28.80;61.60;;;;;;4967753;28;20043;-53
2021/07/08 11:37:55;;;;;;;20.33;11.75;;;28.60;62.10;;;;;;4957168;28;20043;-53
2021/07/08 11:40:23;;;;;;;19.38;12.52;;;28.70;61.90;;;;;;4948962;29;20054;-54
2021/07/08 11:42:50;;;;;;;27.42;11.80;;;28.60;62.50;;;;;;4950228;29;20043;-57
2021/07/08 11:45:20;;;;;;;18.50;12.57;;;28.50;62.80;;;;;;4934182;29;20043;-54
2021/07/08 11:47:55;;;;;;;17.15;11.73;;;28.60;62.70;;;;;;4947571;28;20035;-56
2021/07/08 11:50:22;;;;;;;22.85;12.05;;;28.60;62.90;;;;;;4950094;29;20051;-55
2021/07/08 11:53:06;;;;;;;15.80;11.27;;;28.80;62.00;;;;;;4950237;29;20129;-58
2021/07/08 11:55:33;;;;;;;16.60;10.68;;;28.70;62.00;;;;;;4949701;29;20043;-56
2021/07/08 11:58:03;;;;;;;16.50;12.18;;;28.80;61.90;;;;;;4907404;29;20159;-54
2021/07/08 12:00:38;;;;;;;18.90;12.55;;;28.70;62.00;;;;;;4947953;29;20487;-53
2021/07/08 12:03:22;;;;;;;20.65;11.57;;;28.60;62.90;;;;;;4950001;29;20040;-55
2021/07/08 12:06:00;;;;;;;16.85;11.90;;;28.60;62.20;;;;;;4950182;29;20063;-60
2021/07/08 12:08:35;;;;;;;18.17;12.77;;;28.70;61.80;;;;;;4949657;29;20062;-54
2021/07/08 12:11:21;;;;;;;19.33;13.20;;;28.80;61.90;;;;;;4969576;28;20058;-53
2021/07/08 12:13:54;;;;;;;19.63;12.75;;;28.60;62.40;;;;;;5010867;28;20156;-55
2021/07/08 12:16:29;;;;;;;17.38;11.85;;;28.50;62.20;;;;;;5006952;28;20042;-57
2021/07/08 12:18:55;;;;;;;18.10;13.70;;;28.60;62.20;;;;;;5029008;28;20087;-54
2021/07/08 12:21:25;;;;;;;19.35;13.23;;;28.50;62.60;;;;;;5028901;28;20029;-54
2021/07/08 12:23:52;;;;;;;;;;;28.40;62.90;;;;;;5030295;28;20059;-55
2021/07/08 12:26:33;;;;;;;16.67;11.27;;;28.40;63.40;;;;;;5029911;28;19915;-54
2021/07/08 12:29:22;;;;;;;21.50;13.25;;;28.60;62.20;;;;;;5029918;28;20112;-53
2021/07/08 12:32:02;;;;;;;18.30;12.40;;;28.80;61.50;;;;;;5030688;28;20385;-54
2021/07/08 12:34:45;;;;;;;;;;;29.00;61.20;;;;;;5029343;28;20096;-54
2021/07/08 12:37:19;;;;;;;17.33;11.70;;;29.10;61.00;;;;;;5033268;28;20451;-54
2021/07/08 12:39:53;;;;;;;20.17;11.52;;;29.40;60.00;;;;;;5033847;28;20037;-55
2021/07/08 12:42:25;;;;;;;25.75;13.52;;;29.70;59.40;;;;;;5050319;28;20047;-54
2021/07/08 12:44:53;;;;;;;18.40;12.02;;;29.20;60.70;;;;;;5053957;28;20057;-59
2021/07/08 12:47:21;;;;;;;16.80;11.88;;;28.90;61.50;;;;;;5054170;28;20100;-55
2021/07/08 12:49:48;;;;;;;15.13;11.48;;;28.60;62.10;;;;;;5054279;28;20441;-57
2021/07/08 12:52:15;;;;;;;18.52;12.32;;;28.60;62.50;;;;;;5053872;28;20033;-54
2021/07/08 12:54:41;;;;;;;18.65;11.80;;;28.90;61.40;;;;;;5053118;28;20094;-55